Gatika, Spain
Current Conditions -  °F | °C
As of 8:00 AM on Friday 28 Nov 2014 (Local Time) from LEBB Reporting Station
Few Clouds Few Clouds  
Wind Chill: 63°   Ceiling: Unl
Heat Index: 63°   Visibility: 6mi
Dew Point: 46°   Wind: 23mph
Humidity: 55%   Direction: 140°SE
Pressure: 29.09"   Gusts: 35mph
Location:  43.37°N, 2.87°W
Report Text: LEBB 280700Z 14020G30KT 110V170 9999 FEW035 17/08 Q0985 NOSIG
Loading
Personal Weather Stations






























Interactive Weather Map New forecast layout! Learn more

10-Day Weather Forecast

Advertisements
Track Severe Weather on mobile